PWSweather.com
Personal Weather Stations
Station Observations
HELOTES
Helotes Park Terrace, Helotes, TX 78023

Helotes Park TerraceHelotes, TX 78023

Lat: 29.57, Lon: -98.68

Elevation: 1060

Station Type: Ambient Weather WS-1090

Latest ConditionsUpdated 5:28:48 PM CST Saturday, Nov 22, 2014
Currently Today's Max Today's Min Today's Average
Temperature 68.6°F20.3°C 69.5°F20.8°C 65.0°F18.3°C 66.2°F19.0°C
Dew Point 66.8°F19.3°C 68.0°F20.0°C 63.2°F17.3°C 64.6°F18.1°C
Winds 0.7 mph SSW1.1 kmh SSW 8.9 mph SSE14.3 kmh SSE - 4.9 mph 7.9 kmh
Wind Gusts 4.7 mph7.6 kmh 13.4 mph21.6 kmh - -
Humidity 94% 96% 94% 95%
Pressure 29.67 in1004.7 mb 29.96 in1014.6 mb 29.66 in1004.4 mb -
Precipitation - 0.48 in12.2 mm - -
Hour Temp Dew Point Humidity Winds Wind Gusts Pressure Precip Precip Rate Daily Precip Total
05:28 PM 68.6°F20.3°C 66.8°F19.3°C 94% 0.7 mph SSW1.1 kmh SSW 4.7 mph7.6 kmh 29.67 in1004.7 mb 0.00 in0.0 mm 0.00 in/hr0.0 mm/hr 0.48 in12.2 mm
05:23 PM 68.6°F20.3°C 66.8°F19.3°C 94% 2.9 mph S4.7 kmh S 6.0 mph9.7 kmh 29.67 in1004.7 mb 0.00 in0.0 mm 0.00 in/hr0.0 mm/hr 0.48 in12.2 mm
05:18 PM 68.8°F20.4°C 67.0°F19.4°C 94% 2.1 mph S3.4 kmh S 6.0 mph9.7 kmh 29.67 in1004.7 mb 0.00 in0.0 mm 0.00 in/hr0.0 mm/hr 0.48 in12.2 mm
05:13 PM 68.8°F20.4°C 67.2°F19.6°C 95% 1.1 mph SSE1.8 kmh SSE 3.1 mph5.0 kmh 29.66 in1004.4 mb 0.00 in0.0 mm 0.00 in/hr0.0 mm/hr 0.48 in12.2 mm
05:08 PM 68.8°F20.4°C 67.2°F19.6°C 95% 2.2 mph SE3.5 kmh SE 4.3 mph6.9 kmh 29.66 in1004.4 mb 0.00 in0.0 mm 0.00 in/hr0.0 mm/hr 0.48 in12.2 mm
05:03 PM 68.8°F20.4°C 67.2°F19.6°C 95% 2.4 mph SSE3.9 kmh SSE 6.5 mph10.5 kmh 29.66 in1004.4 mb 0.00 in0.0 mm 0.00 in/hr0.0 mm/hr 0.48 in12.2 mm
04:58 PM 68.9°F20.5°C 67.4°F19.7°C 95% 4.1 mph S6.6 kmh S 6.5 mph10.5 kmh 29.66 in1004.4 mb 0.00 in0.0 mm 0.00 in/hr0.0 mm/hr 0.48 in12.2 mm
04:53 PM 68.9°F20.5°C 67.4°F19.7°C 95% 4.9 mph SE7.9 kmh SE 4.9 mph7.9 kmh 29.66 in1004.4 mb 0.00 in0.0 mm 0.00 in/hr0.0 mm/hr 0.48 in12.2 mm
04:48 PM 68.9°F20.5°C 67.4°F19.7°C 95% 3.3 mph S5.3 kmh S 4.0 mph6.4 kmh 29.66 in1004.4 mb 0.00 in0.0 mm 0.00 in/hr0.0 mm/hr 0.48 in12.2 mm
04:43 PM 69.1°F20.6°C 67.6°F19.8°C 95% 3.6 mph S5.8 kmh S 6.7 mph10.8 kmh 29.66 in1004.4 mb 0.00 in0.0 mm 0.00 in/hr0.0 mm/hr 0.48 in12.2 mm
04:38 PM 69.1°F20.6°C 67.6°F19.8°C 95% 3.1 mph SE5.0 kmh SE 6.7 mph10.8 kmh 29.66 in1004.4 mb 0.00 in0.0 mm 0.00 in/hr0.0 mm/hr 0.48 in12.2 mm
04:33 PM 69.1°F20.6°C 67.6°F19.8°C 95% 3.4 mph SE5.5 kmh SE 8.9 mph14.3 kmh 29.66 in1004.4 mb 0.00 in0.0 mm 0.00 in/hr0.0 mm/hr 0.48 in12.2 mm
04:28 PM 69.3°F20.7°C 67.8°F19.9°C 95% 7.0 mph SE11.3 kmh SE 8.9 mph14.3 kmh 29.66 in1004.4 mb 0.00 in0.0 mm 0.00 in/hr0.0 mm/hr 0.48 in12.2 mm
04:23 PM 69.3°F20.7°C 67.8°F19.9°C 95% 4.0 mph S6.4 kmh S 8.3 mph13.4 kmh 29.66 in1004.4 mb 0.00 in0.0 mm 0.00 in/hr0.0 mm/hr 0.48 in12.2 mm
04:18 PM 69.5°F20.8°C 68.0°F20.0°C 95% 4.5 mph SSE7.2 kmh SSE 8.3 mph13.4 kmh 29.66 in1004.4 mb 0.00 in0.0 mm 0.00 in/hr0.0 mm/hr 0.48 in12.2 mm
04:13 PM 69.5°F20.8°C 68.0°F20.0°C 95% 8.3 mph SSE13.4 kmh SSE 8.3 mph13.4 kmh 29.66 in1004.4 mb 0.00 in0.0 mm 0.00 in/hr0.0 mm/hr 0.48 in12.2 mm
04:08 PM 69.3°F20.7°C 67.8°F19.9°C 95% 7.4 mph SE11.9 kmh SE 7.4 mph11.9 kmh 29.66 in1004.4 mb 0.00 in0.0 mm 0.00 in/hr0.0 mm/hr 0.48 in12.2 mm
04:03 PM 69.3°F20.7°C 67.8°F19.9°C 95% 5.6 mph SE9.0 kmh SE 6.7 mph10.8 kmh 29.66 in1004.4 mb 0.00 in0.0 mm 0.00 in/hr0.0 mm/hr 0.48 in12.2 mm
03:58 PM 69.3°F20.7°C 67.8°F19.9°C 95% 3.4 mph SE5.5 kmh SE 4.3 mph6.9 kmh 29.66 in1004.4 mb 0.00 in0.0 mm 0.00 in/hr0.0 mm/hr 0.48 in12.2 mm
03:53 PM 69.1°F20.6°C 67.9°F19.9°C 96% 4.2 mph SSE6.8 kmh SSE 8.1 mph13.0 kmh 29.67 in1004.7 mb 0.00 in0.0 mm 0.00 in/hr0.0 mm/hr 0.48 in12.2 mm
03:48 PM 69.1°F20.6°C 67.9°F19.9°C 96% 7.3 mph SE11.7 kmh SE 8.1 mph13.0 kmh 29.67 in1004.7 mb 0.00 in0.0 mm 0.00 in/hr0.0 mm/hr 0.48 in12.2 mm
03:43 PM 68.9°F20.5°C 67.7°F19.8°C 96% 4.7 mph SSE7.6 kmh SSE 6.0 mph9.7 kmh 29.67 in1004.7 mb 0.00 in0.0 mm 0.00 in/hr0.0 mm/hr 0.48 in12.2 mm
03:38 PM 68.8°F20.4°C 67.5°F19.7°C 96% 6.0 mph SE9.7 kmh SE 8.9 mph14.3 kmh 29.67 in1004.7 mb 0.00 in0.0 mm 0.00 in/hr0.0 mm/hr 0.48 in12.2 mm
03:33 PM 68.8°F20.4°C 67.5°F19.7°C 96% 4.0 mph SE6.4 kmh SE 9.8 mph15.8 kmh 29.67 in1004.7 mb 0.00 in0.0 mm 0.00 in/hr0.0 mm/hr 0.48 in12.2 mm
03:28 PM 68.8°F20.4°C 67.5°F19.7°C 96% 8.9 mph SSE14.3 kmh SSE 9.8 mph15.8 kmh 29.67 in1004.7 mb 0.00 in0.0 mm 0.00 in/hr0.0 mm/hr 0.48 in12.2 mm
03:23 PM 68.8°F20.4°C 67.5°F19.7°C 96% 7.4 mph SE11.9 kmh SE 9.8 mph15.8 kmh 29.67 in1004.7 mb 0.00 in0.0 mm 0.00 in/hr0.0 mm/hr 0.48 in12.2 mm
03:18 PM 68.8°F20.4°C 67.5°F19.7°C 96% 8.3 mph SSE13.4 kmh SSE 9.8 mph15.8 kmh 29.67 in1004.7 mb 0.00 in0.0 mm 0.00 in/hr0.0 mm/hr 0.48 in12.2 mm
03:13 PM 68.8°F20.4°C 67.5°F19.7°C 96% 4.7 mph SE7.6 kmh SE 9.4 mph15.1 kmh 29.67 in1004.7 mb 0.00 in0.0 mm 0.00 in/hr0.0 mm/hr 0.48 in12.2 mm
03:08 PM 68.9°F20.5°C 67.7°F19.8°C 96% 3.5 mph SE5.6 kmh SE 10.1 mph16.3 kmh 29.67 in1004.7 mb 0.00 in0.0 mm 0.00 in/hr0.0 mm/hr 0.48 in12.2 mm
03:03 PM 68.8°F20.4°C 67.5°F19.7°C 96% 6.0 mph SSE9.7 kmh SSE 10.1 mph16.3 kmh 29.67 in1004.7 mb 0.00 in0.0 mm 0.00 in/hr0.0 mm/hr 0.48 in12.2 mm
02:58 PM 68.8°F20.4°C 67.5°F19.7°C 96% 5.1 mph SE8.2 kmh SE 6.7 mph10.8 kmh 29.67 in1004.7 mb 0.00 in0.0 mm 0.00 in/hr0.0 mm/hr 0.48 in12.2 mm
02:53 PM 68.8°F20.4°C 67.5°F19.7°C 96% 5.1 mph SE8.2 kmh SE 6.7 mph10.8 kmh 29.67 in1004.7 mb 0.00 in0.0 mm 0.00 in/hr0.0 mm/hr 0.48 in12.2 mm
02:48 PM 68.9°F20.5°C 67.7°F19.8°C 96% 6.1 mph SE9.8 kmh SE 6.7 mph10.8 kmh 29.67 in1004.7 mb 0.00 in0.0 mm 0.00 in/hr0.0 mm/hr 0.48 in12.2 mm
02:43 PM 68.9°F20.5°C 67.7°F19.8°C 96% 5.8 mph SE9.3 kmh SE 6.0 mph9.7 kmh 29.68 in1005.1 mb 0.00 in0.0 mm 0.00 in/hr0.0 mm/hr 0.48 in12.2 mm
02:38 PM 68.9°F20.5°C 67.7°F19.8°C 96% 5.1 mph ESE8.2 kmh ESE 6.9 mph11.1 kmh 29.68 in1005.1 mb 0.00 in0.0 mm 0.00 in/hr0.0 mm/hr 0.48 in12.2 mm
02:33 PM 69.1°F20.6°C 67.9°F19.9°C 96% 6.0 mph SE9.7 kmh SE 6.9 mph11.1 kmh 29.68 in1005.1 mb 0.00 in0.0 mm 0.00 in/hr0.0 mm/hr 0.48 in12.2 mm
02:28 PM 69.1°F20.6°C 67.6°F19.8°C 95% 4.7 mph S7.6 kmh S 5.4 mph8.7 kmh 29.69 in1005.4 mb 0.00 in0.0 mm 0.00 in/hr0.0 mm/hr 0.48 in12.2 mm
02:22 PM 69.1°F20.6°C 67.9°F19.9°C 96% 2.7 mph ESE4.3 kmh ESE 9.6 mph15.4 kmh 29.68 in1005.1 mb 0.00 in0.0 mm 0.00 in/hr0.0 mm/hr 0.48 in12.2 mm
02:17 PM 69.1°F20.6°C 67.6°F19.8°C 95% 5.4 mph SSE8.7 kmh SSE 9.6 mph15.4 kmh 29.69 in1005.4 mb 0.00 in0.0 mm 0.00 in/hr0.0 mm/hr 0.48 in12.2 mm
02:12 PM 69.1°F20.6°C 67.9°F19.9°C 96% 2.9 mph ENE4.7 kmh ENE 7.2 mph11.6 kmh 29.69 in1005.4 mb 0.00 in0.0 mm 0.00 in/hr0.0 mm/hr 0.48 in12.2 mm
02:07 PM 69.1°F20.6°C 67.6°F19.8°C 95% 5.1 mph E8.2 kmh E 7.2 mph11.6 kmh 29.70 in1005.8 mb 0.00 in0.0 mm 0.00 in/hr0.0 mm/hr 0.48 in12.2 mm
02:02 PM 68.9°F20.5°C 67.4°F19.7°C 95% 6.7 mph SE10.8 kmh SE 8.1 mph13.0 kmh 29.70 in1005.8 mb 0.00 in0.0 mm 0.00 in/hr0.0 mm/hr 0.48 in12.2 mm
01:57 PM 68.8°F20.4°C 67.2°F19.6°C 95% 5.7 mph SSE9.2 kmh SSE 9.6 mph15.4 kmh 29.70 in1005.8 mb 0.00 in0.0 mm 0.00 in/hr0.0 mm/hr 0.48 in12.2 mm
01:52 PM 68.9°F20.5°C 67.4°F19.7°C 95% 8.4 mph SE13.5 kmh SE 11.4 mph18.3 kmh 29.70 in1005.8 mb 0.00 in0.0 mm 0.00 in/hr0.0 mm/hr 0.48 in12.2 mm
01:47 PM 68.8°F20.4°C 67.2°F19.6°C 95% 7.1 mph SE11.4 kmh SE 11.4 mph18.3 kmh 29.70 in1005.8 mb 0.00 in0.0 mm 0.00 in/hr0.0 mm/hr 0.48 in12.2 mm
01:42 PM 68.8°F20.4°C 67.2°F19.6°C 95% 6.9 mph SE11.1 kmh SE 9.6 mph15.4 kmh 29.70 in1005.8 mb 0.00 in0.0 mm 0.00 in/hr0.0 mm/hr 0.48 in12.2 mm
01:37 PM 68.2°F20.1°C 67.0°F19.4°C 96% 6.0 mph ESE9.7 kmh ESE 9.6 mph15.4 kmh 29.71 in1006.1 mb 0.00 in0.0 mm 0.00 in/hr0.0 mm/hr 0.48 in12.2 mm
01:32 PM 68.0°F20.0°C 66.8°F19.3°C 96% 6.6 mph SE10.6 kmh SE 9.6 mph15.4 kmh 29.71 in1006.1 mb 0.00 in0.0 mm 0.00 in/hr0.0 mm/hr 0.48 in12.2 mm
01:27 PM 67.7°F19.8°C 66.4°F19.1°C 96% 5.1 mph SE8.2 kmh SE 7.6 mph12.2 kmh 29.71 in1006.1 mb 0.00 in0.0 mm 0.00 in/hr0.0 mm/hr 0.48 in12.2 mm
01:22 PM 67.5°F19.7°C 66.2°F19.0°C 96% 3.4 mph SSE5.5 kmh SSE 10.7 mph17.2 kmh 29.71 in1006.1 mb 0.00 in0.0 mm 0.00 in/hr0.0 mm/hr 0.48 in12.2 mm
01:17 PM 67.7°F19.8°C 66.4°F19.1°C 96% 7.1 mph SE11.4 kmh SE 10.7 mph17.2 kmh 29.72 in1006.4 mb 0.00 in0.0 mm 0.00 in/hr0.0 mm/hr 0.48 in12.2 mm
01:12 PM 67.7°F19.8°C 66.4°F19.1°C 96% 4.5 mph SE7.2 kmh SE 8.5 mph13.7 kmh 29.73 in1006.8 mb 0.00 in0.0 mm 0.00 in/hr0.0 mm/hr 0.48 in12.2 mm
01:07 PM 67.5°F19.7°C 66.2°F19.0°C 96% 8.5 mph ESE13.7 kmh ESE 8.5 mph13.7 kmh 29.73 in1006.8 mb 0.00 in0.0 mm 0.00 in/hr0.0 mm/hr 0.48 in12.2 mm
01:02 PM 67.3°F19.6°C 66.1°F18.9°C 96% 5.4 mph ESE8.7 kmh ESE 8.1 mph13.0 kmh 29.73 in1006.8 mb 0.00 in0.0 mm 0.00 in/hr0.0 mm/hr 0.48 in12.2 mm
12:57 PM 67.0°F19.4°C 65.7°F18.7°C 96% 5.9 mph SE9.5 kmh SE 9.8 mph15.8 kmh 29.74 in1007.1 mb 0.00 in0.0 mm 0.00 in/hr0.0 mm/hr 0.48 in12.2 mm
12:52 PM 66.6°F19.2°C 65.3°F18.5°C 96% 7.3 mph S11.7 kmh S 9.8 mph15.8 kmh 29.75 in1007.5 mb 0.00 in0.0 mm 0.00 in/hr0.0 mm/hr 0.48 in12.2 mm
12:47 PM 66.2°F19.0°C 64.7°F18.2°C 95% 3.4 mph E5.5 kmh E 4.7 mph7.6 kmh 29.75 in1007.5 mb 0.00 in0.0 mm 0.00 in/hr0.0 mm/hr 0.48 in12.2 mm
12:42 PM 66.2°F19.0°C 64.7°F18.2°C 95% 3.2 mph E5.1 kmh E 6.9 mph11.1 kmh 29.76 in1007.8 mb 0.00 in0.0 mm 0.00 in/hr0.0 mm/hr 0.48 in12.2 mm
12:37 PM 66.1°F18.9°C 64.5°F18.1°C 95% 3.5 mph S5.6 kmh S 7.2 mph11.6 kmh 29.76 in1007.8 mb 0.00 in0.0 mm 0.00 in/hr0.0 mm/hr 0.48 in12.2 mm
12:32 PM 65.9°F18.8°C 64.4°F18.0°C 95% 2.6 mph SSE4.2 kmh SSE 7.2 mph11.6 kmh 29.76 in1007.8 mb 0.00 in0.0 mm 0.00 in/hr0.0 mm/hr 0.48 in12.2 mm
12:27 PM 65.9°F18.8°C 64.4°F18.0°C 95% 4.1 mph SE6.6 kmh SE 5.1 mph8.2 kmh 29.77 in1008.1 mb 0.01 in0.3 mm 0.00 in/hr0.0 mm/hr 0.48 in12.2 mm
12:22 PM 65.9°F18.8°C 64.4°F18.0°C 95% 3.1 mph ESE5.0 kmh ESE 6.3 mph10.1 kmh 29.78 in1008.5 mb 0.03 in0.8 mm 0.00 in/hr0.0 mm/hr 0.48 in12.2 mm
12:17 PM 65.7°F18.7°C 64.2°F17.9°C 95% 3.7 mph SE6.0 kmh SE 6.3 mph10.1 kmh 29.78 in1008.5 mb 0.05 in1.3 mm 0.00 in/hr0.0 mm/hr 0.48 in12.2 mm
12:12 PM 65.7°F18.7°C 64.2°F17.9°C 95% 4.3 mph E6.9 kmh E 5.6 mph9.0 kmh 29.79 in1008.8 mb 0.07 in1.8 mm 0.00 in/hr0.0 mm/hr 0.48 in12.2 mm
12:07 PM 65.7°F18.7°C 64.2°F17.9°C 95% 4.0 mph SE6.4 kmh SE 6.3 mph10.1 kmh 29.79 in1008.8 mb 0.13 in3.3 mm 0.00 in/hr0.0 mm/hr 0.48 in12.2 mm
12:02 PM 65.5°F18.6°C 64.0°F17.8°C 95% 2.3 mph SE3.7 kmh SE 6.9 mph11.1 kmh 29.80 in1009.1 mb 0.13 in3.3 mm 0.00 in/hr0.0 mm/hr 0.48 in12.2 mm
11:57 AM 65.5°F18.6°C 64.0°F17.8°C 95% 5.6 mph SSE9.0 kmh SSE 6.9 mph11.1 kmh 29.80 in1009.1 mb 0.17 in4.3 mm 0.00 in/hr0.0 mm/hr 0.48 in12.2 mm
11:52 AM 65.5°F18.6°C 64.0°F17.8°C 95% 5.3 mph ESE8.5 kmh ESE 6.9 mph11.1 kmh 29.81 in1009.5 mb 0.18 in4.6 mm 0.00 in/hr0.0 mm/hr 0.48 in12.2 mm
11:47 AM 65.5°F18.6°C 64.0°F17.8°C 95% 3.0 mph ESE4.8 kmh ESE 6.5 mph10.5 kmh 29.81 in1009.5 mb 0.18 in4.6 mm 0.00 in/hr0.0 mm/hr 0.48 in12.2 mm
11:42 AM 65.5°F18.6°C 64.0°F17.8°C 95% 5.0 mph E8.0 kmh E 9.4 mph15.1 kmh 29.81 in1009.5 mb 0.18 in4.6 mm 0.00 in/hr0.0 mm/hr 0.48 in12.2 mm
11:37 AM 65.5°F18.6°C 64.0°F17.8°C 95% 5.6 mph E9.0 kmh E 9.4 mph15.1 kmh 29.81 in1009.5 mb 0.18 in4.6 mm 0.12 in/hr3.0 mm/hr 0.48 in12.2 mm
11:32 AM 65.3°F18.5°C 63.8°F17.7°C 95% 3.1 mph ESE5.0 kmh ESE 5.8 mph9.3 kmh 29.81 in1009.5 mb 0.17 in4.3 mm 0.00 in/hr0.0 mm/hr 0.47 in11.9 mm
11:27 AM 65.3°F18.5°C 63.8°F17.7°C 95% 2.7 mph ESE4.3 kmh ESE 5.4 mph8.7 kmh 29.82 in1009.8 mb 0.18 in4.6 mm 0.36 in/hr9.1 mm/hr 0.47 in11.9 mm
11:22 AM 65.3°F18.5°C 63.8°F17.7°C 95% 3.8 mph ESE6.1 kmh ESE 7.6 mph12.2 kmh 29.82 in1009.8 mb 0.15 in3.8 mm 0.24 in/hr6.1 mm/hr 0.44 in11.2 mm
11:17 AM 65.3°F18.5°C 63.8°F17.7°C 95% 3.4 mph ENE5.5 kmh ENE 8.9 mph14.3 kmh 29.82 in1009.8 mb 0.13 in3.3 mm 0.60 in/hr15.2 mm/hr 0.42 in10.7 mm
11:12 AM 65.3°F18.5°C 63.8°F17.7°C 95% 6.9 mph E11.1 kmh E 8.9 mph14.3 kmh 29.82 in1009.8 mb 0.08 in2.0 mm 0.24 in/hr6.1 mm/hr 0.36 in9.1 mm
11:07 AM 65.3°F18.5°C 63.8°F17.7°C 95% 6.2 mph ENE10.0 kmh ENE 7.6 mph12.2 kmh 29.82 in1009.8 mb 0.06 in1.5 mm 0.12 in/hr3.0 mm/hr 0.35 in8.9 mm
11:02 AM 65.2°F18.4°C 63.7°F17.6°C 95% 5.7 mph E9.2 kmh E 7.2 mph11.6 kmh 29.83 in1010.2 mb 0.05 in1.3 mm 0.03 in/hr0.8 mm/hr 0.34 in8.6 mm
10:57 AM 65.3°F18.5°C 63.8°F17.7°C 95% 4.5 mph E7.2 kmh E 6.9 mph11.1 kmh 29.84 in1010.5 mb 0.02 in0.5 mm 0.12 in/hr3.0 mm/hr 0.31 in7.9 mm
10:52 AM 65.2°F18.4°C 63.7°F17.6°C 95% 3.6 mph E5.8 kmh E 8.9 mph14.3 kmh 29.84 in1010.5 mb 0.01 in0.3 mm 0.00 in/hr0.0 mm/hr 0.30 in7.6 mm
10:47 AM 65.3°F18.5°C 63.8°F17.7°C 95% 4.1 mph E6.6 kmh E 8.9 mph14.3 kmh 29.85 in1010.8 mb 0.01 in0.3 mm 0.00 in/hr0.0 mm/hr 0.30 in7.6 mm
10:42 AM 65.2°F18.4°C 63.7°F17.6°C 95% 5.2 mph E8.4 kmh E 8.3 mph13.4 kmh 29.85 in1010.8 mb 0.01 in0.3 mm 0.00 in/hr0.0 mm/hr 0.30 in7.6 mm
10:37 AM 65.2°F18.4°C 63.7°F17.6°C 95% 4.8 mph ENE7.7 kmh ENE 7.4 mph11.9 kmh 29.85 in1010.8 mb 0.01 in0.3 mm 0.12 in/hr3.0 mm/hr 0.30 in7.6 mm
10:32 AM 65.2°F18.4°C 63.7°F17.6°C 95% 4.3 mph E6.9 kmh E 6.5 mph10.5 kmh 29.86 in1011.2 mb 0.00 in0.0 mm 0.00 in/hr0.0 mm/hr 0.29 in7.4 mm
10:27 AM 65.2°F18.4°C 63.7°F17.6°C 95% 4.8 mph E7.7 kmh E 9.2 mph14.8 kmh 29.86 in1011.2 mb 0.02 in0.5 mm 0.00 in/hr0.0 mm/hr 0.29 in7.4 mm
10:22 AM 65.2°F18.4°C 63.7°F17.6°C 95% 2.6 mph E4.2 kmh E 9.2 mph14.8 kmh 29.86 in1011.2 mb 0.02 in0.5 mm 0.00 in/hr0.0 mm/hr 0.29 in7.4 mm
10:17 AM 65.2°F18.4°C 63.7°F17.6°C 95% 4.3 mph ENE6.9 kmh ENE 8.5 mph13.7 kmh 29.86 in1011.2 mb 0.03 in0.8 mm 0.00 in/hr0.0 mm/hr 0.29 in7.4 mm
10:12 AM 65.2°F18.4°C 63.7°F17.6°C 95% 4.5 mph NE7.2 kmh NE 7.8 mph12.6 kmh 29.87 in1011.5 mb 0.03 in0.8 mm 0.00 in/hr0.0 mm/hr 0.29 in7.4 mm
10:07 AM 65.2°F18.4°C 63.7°F17.6°C 95% 6.4 mph E10.3 kmh E 7.8 mph12.6 kmh 29.86 in1011.2 mb 0.03 in0.8 mm 0.00 in/hr0.0 mm/hr 0.29 in7.4 mm
10:02 AM 65.2°F18.4°C 63.7°F17.6°C 95% 3.8 mph ENE6.1 kmh ENE 7.6 mph12.2 kmh 29.87 in1011.5 mb 0.04 in1.0 mm 0.00 in/hr0.0 mm/hr 0.29 in7.4 mm
09:57 AM 65.2°F18.4°C 63.7°F17.6°C 95% 5.1 mph ENE8.2 kmh ENE 7.6 mph12.2 kmh 29.87 in1011.5 mb 0.04 in1.0 mm 0.00 in/hr0.0 mm/hr 0.29 in7.4 mm
09:52 AM 65.2°F18.4°C 63.7°F17.6°C 95% 3.7 mph E6.0 kmh E 7.6 mph12.2 kmh 29.87 in1011.5 mb 0.04 in1.0 mm 0.00 in/hr0.0 mm/hr 0.29 in7.4 mm
09:47 AM 65.2°F18.4°C 63.7°F17.6°C 95% 5.0 mph E8.0 kmh E 8.5 mph13.7 kmh 29.87 in1011.5 mb 0.08 in2.0 mm 0.00 in/hr0.0 mm/hr 0.29 in7.4 mm
09:41 AM 65.2°F18.4°C 63.7°F17.6°C 95% 5.1 mph ENE8.2 kmh ENE 8.5 mph13.7 kmh 29.87 in1011.5 mb 0.09 in2.3 mm 0.00 in/hr0.0 mm/hr 0.29 in7.4 mm
09:36 AM 65.2°F18.4°C 63.7°F17.6°C 95% 5.0 mph E8.0 kmh E 7.6 mph12.2 kmh 29.87 in1011.5 mb 0.09 in2.3 mm 0.00 in/hr0.0 mm/hr 0.29 in7.4 mm
09:31 AM 65.2°F18.4°C 63.7°F17.6°C 95% 5.2 mph E8.4 kmh E 10.3 mph16.6 kmh 29.87 in1011.5 mb 0.09 in2.3 mm 0.12 in/hr3.0 mm/hr 0.29 in7.4 mm
09:26 AM 65.2°F18.4°C 63.7°F17.6°C 95% 5.7 mph E9.2 kmh E 10.3 mph16.6 kmh 29.86 in1011.2 mb 0.08 in2.0 mm 0.00 in/hr0.0 mm/hr 0.27 in6.9 mm
09:21 AM 65.2°F18.4°C 63.7°F17.6°C 95% 6.4 mph E10.3 kmh E 12.3 mph19.8 kmh 29.86 in1011.2 mb 0.08 in2.0 mm 0.12 in/hr3.0 mm/hr 0.27 in6.9 mm
09:16 AM 65.2°F18.4°C 63.7°F17.6°C 95% 8.4 mph ENE13.5 kmh ENE 12.3 mph19.8 kmh 29.86 in1011.2 mb 0.07 in1.8 mm 0.00 in/hr0.0 mm/hr 0.26 in6.6 mm
09:11 AM 65.2°F18.4°C 63.7°F17.6°C 95% 5.1 mph E8.2 kmh E 11.0 mph17.7 kmh 29.86 in1011.2 mb 0.09 in2.3 mm 0.00 in/hr0.0 mm/hr 0.26 in6.6 mm
09:06 AM 65.2°F18.4°C 63.7°F17.6°C 95% 7.5 mph ENE12.1 kmh ENE 9.8 mph15.8 kmh 29.86 in1011.2 mb 0.09 in2.3 mm 0.12 in/hr3.0 mm/hr 0.26 in6.6 mm
09:01 AM 65.2°F18.4°C 63.7°F17.6°C 95% 7.5 mph ENE12.1 kmh ENE 11.6 mph18.7 kmh 29.86 in1011.2 mb 0.08 in2.0 mm 0.00 in/hr0.0 mm/hr 0.25 in6.4 mm
08:56 AM 65.2°F18.4°C 63.7°F17.6°C 95% 5.1 mph ENE8.2 kmh ENE 11.6 mph18.7 kmh 29.86 in1011.2 mb 0.08 in2.0 mm 0.12 in/hr3.0 mm/hr 0.25 in6.4 mm
08:51 AM 65.2°F18.4°C 63.7°F17.6°C 95% 5.5 mph E8.9 kmh E 9.2 mph14.8 kmh 29.86 in1011.2 mb 0.07 in1.8 mm 0.48 in/hr12.2 mm/hr 0.24 in6.1 mm
08:46 AM 65.2°F18.4°C 63.7°F17.6°C 95% 7.2 mph ENE11.6 kmh ENE 10.5 mph16.9 kmh 29.86 in1011.2 mb 0.03 in0.8 mm 0.00 in/hr0.0 mm/hr 0.20 in5.1 mm
08:41 AM 65.2°F18.4°C 63.4°F17.4°C 94% 4.9 mph NE7.9 kmh NE 10.5 mph16.9 kmh 29.86 in1011.2 mb 0.03 in0.8 mm 0.00 in/hr0.0 mm/hr 0.20 in5.1 mm
08:36 AM 65.2°F18.4°C 63.7°F17.6°C 95% 7.4 mph E11.9 kmh E 10.5 mph16.9 kmh 29.86 in1011.2 mb 0.03 in0.8 mm 0.00 in/hr0.0 mm/hr 0.20 in5.1 mm
08:31 AM 65.2°F18.4°C 63.4°F17.4°C 94% 6.7 mph NE10.8 kmh NE 10.1 mph16.3 kmh 29.86 in1011.2 mb 0.03 in0.8 mm 0.00 in/hr0.0 mm/hr 0.20 in5.1 mm
08:26 AM 65.2°F18.4°C 63.7°F17.6°C 95% 6.1 mph ENE9.8 kmh ENE 9.6 mph15.4 kmh 29.87 in1011.5 mb 0.03 in0.8 mm 0.00 in/hr0.0 mm/hr 0.19 in4.8 mm
08:21 AM 65.2°F18.4°C 63.7°F17.6°C 95% 5.1 mph E8.2 kmh E 8.5 mph13.7 kmh 29.88 in1011.9 mb 0.05 in1.3 mm 0.12 in/hr3.0 mm/hr 0.19 in4.8 mm
08:16 AM 65.2°F18.4°C 63.7°F17.6°C 95% 7.1 mph ENE11.4 kmh ENE 8.5 mph13.7 kmh 29.88 in1011.9 mb 0.04 in1.0 mm 0.12 in/hr3.0 mm/hr 0.18 in4.6 mm
08:11 AM 65.2°F18.4°C 63.7°F17.6°C 95% 5.2 mph ENE8.4 kmh ENE 9.8 mph15.8 kmh 29.88 in1011.9 mb 0.03 in0.8 mm 0.00 in/hr0.0 mm/hr 0.17 in4.3 mm
08:06 AM 65.2°F18.4°C 63.7°F17.6°C 95% 5.3 mph E8.5 kmh E 12.1 mph19.5 kmh 29.88 in1011.9 mb 0.03 in0.8 mm 0.00 in/hr0.0 mm/hr 0.17 in4.3 mm
08:01 AM 65.2°F18.4°C 63.7°F17.6°C 95% 8.6 mph NE13.8 kmh NE 12.1 mph19.5 kmh 29.88 in1011.9 mb 0.03 in0.8 mm 0.00 in/hr0.0 mm/hr 0.17 in4.3 mm
07:56 AM 65.2°F18.4°C 63.7°F17.6°C 95% 5.3 mph ENE8.5 kmh ENE 9.8 mph15.8 kmh 29.88 in1011.9 mb 0.04 in1.0 mm 0.00 in/hr0.0 mm/hr 0.17 in4.3 mm
07:51 AM 65.2°F18.4°C 63.7°F17.6°C 95% 6.9 mph NE11.1 kmh NE 9.2 mph14.8 kmh 29.88 in1011.9 mb 0.04 in1.0 mm 0.00 in/hr0.0 mm/hr 0.17 in4.3 mm
07:46 AM 65.2°F18.4°C 63.4°F17.4°C 94% 6.7 mph E10.8 kmh E 13.4 mph21.6 kmh 29.88 in1011.9 mb 0.04 in1.0 mm 0.00 in/hr0.0 mm/hr 0.17 in4.3 mm
07:41 AM 65.2°F18.4°C 63.4°F17.4°C 94% 7.1 mph E11.4 kmh E 13.4 mph21.6 kmh 29.88 in1011.9 mb 0.04 in1.0 mm 0.00 in/hr0.0 mm/hr 0.17 in4.3 mm
07:36 AM 65.2°F18.4°C 63.4°F17.4°C 94% 6.6 mph ENE10.6 kmh ENE 9.2 mph14.8 kmh 29.88 in1011.9 mb 0.04 in1.0 mm 0.00 in/hr0.0 mm/hr 0.17 in4.3 mm
07:31 AM 65.0°F18.3°C 63.2°F17.3°C 94% 6.3 mph NE10.1 kmh NE 11.4 mph18.3 kmh 29.88 in1011.9 mb 0.04 in1.0 mm 0.24 in/hr6.1 mm/hr 0.17 in4.3 mm
07:26 AM 65.0°F18.3°C 63.2°F17.3°C 94% 5.5 mph ENE8.9 kmh ENE 11.4 mph18.3 kmh 29.89 in1012.2 mb 0.02 in0.5 mm 0.12 in/hr3.0 mm/hr 0.15 in3.8 mm
07:21 AM 65.0°F18.3°C 63.2°F17.3°C 94% 7.9 mph NE12.7 kmh NE 9.8 mph15.8 kmh 29.89 in1012.2 mb 0.01 in0.3 mm 0.00 in/hr0.0 mm/hr 0.14 in3.6 mm
07:16 AM 65.0°F18.3°C 63.2°F17.3°C 94% 6.1 mph E9.8 kmh E 8.7 mph14.0 kmh 29.89 in1012.2 mb 0.01 in0.3 mm 0.00 in/hr0.0 mm/hr 0.14 in3.6 mm
07:11 AM 65.0°F18.3°C 63.2°F17.3°C 94% 6.4 mph ENE10.3 kmh ENE 9.2 mph14.8 kmh 29.89 in1012.2 mb 0.01 in0.3 mm 0.00 in/hr0.0 mm/hr 0.14 in3.6 mm
07:06 AM 65.0°F18.3°C 63.2°F17.3°C 94% 5.6 mph NE9.0 kmh NE 9.2 mph14.8 kmh 29.89 in1012.2 mb 0.01 in0.3 mm 0.12 in/hr3.0 mm/hr 0.14 in3.6 mm
07:01 AM 65.2°F18.4°C 63.4°F17.4°C 94% 5.1 mph NE8.2 kmh NE 10.1 mph16.3 kmh 29.89 in1012.2 mb 0.00 in0.0 mm 0.00 in/hr0.0 mm/hr 0.13 in3.3 mm
06:56 AM 65.0°F18.3°C 63.2°F17.3°C 94% 6.3 mph ENE10.1 kmh ENE 10.1 mph16.3 kmh 29.89 in1012.2 mb 0.00 in0.0 mm 0.00 in/hr0.0 mm/hr 0.13 in3.3 mm
06:51 AM 65.2°F18.4°C 63.4°F17.4°C 94% 5.8 mph NE9.3 kmh NE 9.8 mph15.8 kmh 29.89 in1012.2 mb 0.00 in0.0 mm 0.00 in/hr0.0 mm/hr 0.13 in3.3 mm
06:46 AM 65.2°F18.4°C 63.4°F17.4°C 94% 5.4 mph E8.7 kmh E 9.8 mph15.8 kmh 29.89 in1012.2 mb 0.00 in0.0 mm 0.00 in/hr0.0 mm/hr 0.13 in3.3 mm
06:41 AM 65.2°F18.4°C 63.4°F17.4°C 94% 5.1 mph NE8.2 kmh NE 9.8 mph15.8 kmh 29.89 in1012.2 mb 0.00 in0.0 mm 0.00 in/hr0.0 mm/hr 0.13 in3.3 mm
06:36 AM 65.2°F18.4°C 63.4°F17.4°C 94% 4.8 mph NE7.7 kmh NE 11.0 mph17.7 kmh 29.89 in1012.2 mb 0.00 in0.0 mm 0.00 in/hr0.0 mm/hr 0.13 in3.3 mm
06:31 AM 65.2°F18.4°C 63.4°F17.4°C 94% 4.2 mph E6.8 kmh E 11.0 mph17.7 kmh 29.89 in1012.2 mb 0.00 in0.0 mm 0.00 in/hr0.0 mm/hr 0.13 in3.3 mm
06:26 AM 65.0°F18.3°C 63.2°F17.3°C 94% 5.3 mph ENE8.5 kmh ENE 7.8 mph12.6 kmh 29.90 in1012.5 mb 0.00 in0.0 mm 0.00 in/hr0.0 mm/hr 0.13 in3.3 mm
06:21 AM 65.0°F18.3°C 63.2°F17.3°C 94% 4.0 mph ENE6.4 kmh ENE 11.4 mph18.3 kmh 29.89 in1012.2 mb 0.00 in0.0 mm 0.00 in/hr0.0 mm/hr 0.13 in3.3 mm
06:16 AM 65.0°F18.3°C 63.2°F17.3°C 94% 5.9 mph ENE9.5 kmh ENE 11.4 mph18.3 kmh 29.90 in1012.5 mb 0.00 in0.0 mm 0.00 in/hr0.0 mm/hr 0.13 in3.3 mm
06:11 AM 65.0°F18.3°C 63.2°F17.3°C 94% 4.5 mph ENE7.2 kmh ENE 11.0 mph17.7 kmh 29.90 in1012.5 mb 0.00 in0.0 mm 0.00 in/hr0.0 mm/hr 0.13 in3.3 mm
06:06 AM 65.0°F18.3°C 63.2°F17.3°C 94% 3.8 mph E6.1 kmh E 7.6 mph12.2 kmh 29.90 in1012.5 mb 0.00 in0.0 mm 0.00 in/hr0.0 mm/hr 0.13 in3.3 mm
06:01 AM 65.0°F18.3°C 63.2°F17.3°C 94% 4.6 mph E7.4 kmh E 7.8 mph12.6 kmh 29.90 in1012.5 mb 0.01 in0.3 mm 0.00 in/hr0.0 mm/hr 0.13 in3.3 mm
05:56 AM 65.0°F18.3°C 63.2°F17.3°C 94% 5.3 mph SE8.5 kmh SE 7.8 mph12.6 kmh 29.90 in1012.5 mb 0.01 in0.3 mm 0.00 in/hr0.0 mm/hr 0.13 in3.3 mm
05:51 AM 65.0°F18.3°C 63.2°F17.3°C 94% 4.2 mph ENE6.8 kmh ENE 9.2 mph14.8 kmh 29.90 in1012.5 mb 0.07 in1.8 mm 0.00 in/hr0.0 mm/hr 0.13 in3.3 mm
05:46 AM 65.0°F18.3°C 63.2°F17.3°C 94% 7.1 mph E11.4 kmh E 10.1 mph16.3 kmh 29.90 in1012.5 mb 0.08 in2.0 mm 0.00 in/hr0.0 mm/hr 0.13 in3.3 mm
05:41 AM 65.0°F18.3°C 63.2°F17.3°C 94% 3.6 mph E5.8 kmh E 10.1 mph16.3 kmh 29.90 in1012.5 mb 0.09 in2.3 mm 0.00 in/hr0.0 mm/hr 0.13 in3.3 mm
05:36 AM 65.0°F18.3°C 63.2°F17.3°C 94% 4.7 mph E7.6 kmh E 7.6 mph12.2 kmh 29.90 in1012.5 mb 0.10 in2.5 mm 0.00 in/hr0.0 mm/hr 0.13 in3.3 mm
05:31 AM 65.0°F18.3°C 63.2°F17.3°C 94% 6.3 mph E10.1 kmh E 11.0 mph17.7 kmh 29.90 in1012.5 mb 0.11 in2.8 mm 0.00 in/hr0.0 mm/hr 0.13 in3.3 mm
05:26 AM 65.0°F18.3°C 63.2°F17.3°C 94% 4.9 mph ENE7.9 kmh ENE 11.0 mph17.7 kmh 29.90 in1012.5 mb 0.11 in2.8 mm 0.00 in/hr0.0 mm/hr 0.13 in3.3 mm
05:21 AM 65.0°F18.3°C 63.2°F17.3°C 94% 4.4 mph E7.1 kmh E 9.6 mph15.4 kmh 29.90 in1012.5 mb 0.11 in2.8 mm 0.00 in/hr0.0 mm/hr 0.13 in3.3 mm
05:16 AM 65.0°F18.3°C 63.2°F17.3°C 94% 4.4 mph E7.1 kmh E 6.7 mph10.8 kmh 29.90 in1012.5 mb 0.11 in2.8 mm 0.00 in/hr0.0 mm/hr 0.13 in3.3 mm
05:11 AM 65.0°F18.3°C 63.2°F17.3°C 94% 3.5 mph E5.6 kmh E 6.7 mph10.8 kmh 29.90 in1012.5 mb 0.11 in2.8 mm 0.12 in/hr3.0 mm/hr 0.13 in3.3 mm
05:06 AM 65.0°F18.3°C 63.2°F17.3°C 94% 4.4 mph SE7.1 kmh SE 7.6 mph12.2 kmh 29.90 in1012.5 mb 0.10 in2.5 mm 0.00 in/hr0.0 mm/hr 0.12 in3.0 mm
05:00 AM 65.0°F18.3°C 63.2°F17.3°C 94% 3.4 mph NE5.5 kmh NE 9.2 mph14.8 kmh 29.90 in1012.5 mb 0.10 in2.5 mm 0.03 in/hr0.8 mm/hr 0.12 in3.0 mm
04:55 AM 65.0°F18.3°C 63.2°F17.3°C 94% 4.6 mph E7.4 kmh E 9.2 mph14.8 kmh 29.90 in1012.5 mb 0.07 in1.8 mm 0.48 in/hr12.2 mm/hr 0.09 in2.3 mm
04:50 AM 65.0°F18.3°C 63.2°F17.3°C 94% 5.9 mph E9.5 kmh E 8.7 mph14.0 kmh 29.90 in1012.5 mb 0.03 in0.8 mm 0.12 in/hr3.0 mm/hr 0.05 in1.3 mm
04:45 AM 65.0°F18.3°C 63.2°F17.3°C 94% 4.2 mph ENE6.8 kmh ENE 5.6 mph9.0 kmh 29.90 in1012.5 mb 0.02 in0.5 mm 0.12 in/hr3.0 mm/hr 0.04 in1.0 mm
04:40 AM 65.0°F18.3°C 63.2°F17.3°C 94% 4.8 mph E7.7 kmh E 8.5 mph13.7 kmh 29.90 in1012.5 mb 0.01 in0.3 mm 0.00 in/hr0.0 mm/hr 0.02 in0.5 mm
04:35 AM 65.0°F18.3°C 63.2°F17.3°C 94% 4.2 mph ENE6.8 kmh ENE 8.5 mph13.7 kmh 29.90 in1012.5 mb 0.01 in0.3 mm 0.12 in/hr3.0 mm/hr 0.02 in0.5 mm
04:30 AM 65.0°F18.3°C 63.2°F17.3°C 94% 3.2 mph ENE5.1 kmh ENE 9.6 mph15.4 kmh 29.91 in1012.9 mb 0.00 in0.0 mm 0.00 in/hr0.0 mm/hr 0.02 in0.5 mm
04:25 AM 65.2°F18.4°C 63.4°F17.4°C 94% 4.3 mph E6.9 kmh E 9.6 mph15.4 kmh 29.91 in1012.9 mb 0.00 in0.0 mm 0.00 in/hr0.0 mm/hr 0.02 in0.5 mm
04:20 AM 65.0°F18.3°C 63.2°F17.3°C 94% 5.7 mph NE9.2 kmh NE 8.3 mph13.4 kmh 29.91 in1012.9 mb 0.00 in0.0 mm 0.00 in/hr0.0 mm/hr 0.02 in0.5 mm
04:15 AM 65.2°F18.4°C 63.4°F17.4°C 94% 3.5 mph E5.6 kmh E 8.3 mph13.4 kmh 29.91 in1012.9 mb 0.00 in0.0 mm 0.00 in/hr0.0 mm/hr 0.02 in0.5 mm
04:10 AM 65.2°F18.4°C 63.4°F17.4°C 94% 3.3 mph E5.3 kmh E 7.4 mph11.9 kmh 29.91 in1012.9 mb 0.00 in0.0 mm 0.00 in/hr0.0 mm/hr 0.02 in0.5 mm
04:05 AM 65.2°F18.4°C 63.4°F17.4°C 94% 4.7 mph ESE7.6 kmh ESE 7.6 mph12.2 kmh 29.92 in1013.2 mb 0.00 in0.0 mm 0.00 in/hr0.0 mm/hr 0.02 in0.5 mm
04:00 AM 65.2°F18.4°C 63.4°F17.4°C 94% 5.1 mph E8.2 kmh E 7.6 mph12.2 kmh 29.92 in1013.2 mb 0.00 in0.0 mm 0.00 in/hr0.0 mm/hr 0.02 in0.5 mm
03:55 AM 65.2°F18.4°C 63.4°F17.4°C 94% 3.2 mph ENE5.1 kmh ENE 6.3 mph10.1 kmh 29.92 in1013.2 mb 0.00 in0.0 mm 0.00 in/hr0.0 mm/hr 0.02 in0.5 mm
03:50 AM 65.2°F18.4°C 63.4°F17.4°C 94% 3.0 mph E4.8 kmh E 3.4 mph5.5 kmh 29.92 in1013.2 mb 0.00 in0.0 mm 0.00 in/hr0.0 mm/hr 0.02 in0.5 mm
03:45 AM 65.2°F18.4°C 63.4°F17.4°C 94% 2.3 mph E3.7 kmh E 6.9 mph11.1 kmh 29.92 in1013.2 mb 0.00 in0.0 mm 0.00 in/hr0.0 mm/hr 0.02 in0.5 mm
03:40 AM 65.2°F18.4°C 63.4°F17.4°C 94% 4.6 mph ENE7.4 kmh ENE 7.2 mph11.6 kmh 29.92 in1013.2 mb 0.00 in0.0 mm 0.00 in/hr0.0 mm/hr 0.02 in0.5 mm
03:35 AM 65.2°F18.4°C 63.4°F17.4°C 94% 4.5 mph ENE7.2 kmh ENE 7.2 mph11.6 kmh 29.92 in1013.2 mb 0.00 in0.0 mm 0.00 in/hr0.0 mm/hr 0.02 in0.5 mm
03:30 AM 65.2°F18.4°C 63.4°F17.4°C 94% 3.5 mph E5.6 kmh E 6.3 mph10.1 kmh 29.92 in1013.2 mb 0.00 in0.0 mm 0.00 in/hr0.0 mm/hr 0.02 in0.5 mm
03:25 AM 65.2°F18.4°C 63.4°F17.4°C 94% 3.8 mph E6.1 kmh E 7.4 mph11.9 kmh 29.92 in1013.2 mb 0.00 in0.0 mm 0.00 in/hr0.0 mm/hr 0.02 in0.5 mm
03:20 AM 65.2°F18.4°C 63.4°F17.4°C 94% 3.2 mph E5.1 kmh E 7.4 mph11.9 kmh 29.92 in1013.2 mb 0.00 in0.0 mm 0.00 in/hr0.0 mm/hr 0.02 in0.5 mm
03:15 AM 65.2°F18.4°C 63.4°F17.4°C 94% 3.3 mph NE5.3 kmh NE 6.5 mph10.5 kmh 29.92 in1013.2 mb 0.00 in0.0 mm 0.00 in/hr0.0 mm/hr 0.02 in0.5 mm
03:10 AM 65.2°F18.4°C 63.4°F17.4°C 94% 5.4 mph E8.7 kmh E 7.8 mph12.6 kmh 29.92 in1013.2 mb 0.00 in0.0 mm 0.00 in/hr0.0 mm/hr 0.02 in0.5 mm
03:05 AM 65.2°F18.4°C 63.4°F17.4°C 94% 4.5 mph E7.2 kmh E 8.7 mph14.0 kmh 29.92 in1013.2 mb 0.00 in0.0 mm 0.00 in/hr0.0 mm/hr 0.02 in0.5 mm
03:00 AM 65.2°F18.4°C 63.4°F17.4°C 94% 5.1 mph E8.2 kmh E 8.9 mph14.3 kmh 29.92 in1013.2 mb 0.00 in0.0 mm 0.00 in/hr0.0 mm/hr 0.02 in0.5 mm
02:55 AM 65.2°F18.4°C 63.4°F17.4°C 94% 4.0 mph ENE6.4 kmh ENE 8.9 mph14.3 kmh 29.92 in1013.2 mb 0.00 in0.0 mm 0.00 in/hr0.0 mm/hr 0.02 in0.5 mm
02:50 AM 65.2°F18.4°C 63.4°F17.4°C 94% 4.3 mph NE6.9 kmh NE 6.7 mph10.8 kmh 29.92 in1013.2 mb 0.00 in0.0 mm 0.00 in/hr0.0 mm/hr 0.02 in0.5 mm
02:45 AM 65.2°F18.4°C 63.4°F17.4°C 94% 2.7 mph E4.3 kmh E 6.3 mph10.1 kmh 29.92 in1013.2 mb 0.00 in0.0 mm 0.00 in/hr0.0 mm/hr 0.02 in0.5 mm
02:40 AM 65.2°F18.4°C 63.4°F17.4°C 94% 3.4 mph E5.5 kmh E 6.3 mph10.1 kmh 29.92 in1013.2 mb 0.00 in0.0 mm 0.00 in/hr0.0 mm/hr 0.02 in0.5 mm
02:35 AM 65.2°F18.4°C 63.4°F17.4°C 94% 3.7 mph E6.0 kmh E 6.5 mph10.5 kmh 29.93 in1013.5 mb 0.01 in0.3 mm 0.00 in/hr0.0 mm/hr 0.02 in0.5 mm
02:30 AM 65.2°F18.4°C 63.4°F17.4°C 94% 2.5 mph E4.0 kmh E 6.5 mph10.5 kmh 29.93 in1013.5 mb 0.01 in0.3 mm 0.00 in/hr0.0 mm/hr 0.02 in0.5 mm
02:25 AM 65.2°F18.4°C 63.4°F17.4°C 94% 3.6 mph ESE5.8 kmh ESE 6.7 mph10.8 kmh 29.93 in1013.5 mb 0.01 in0.3 mm 0.00 in/hr0.0 mm/hr 0.02 in0.5 mm
02:20 AM 65.2°F18.4°C 63.4°F17.4°C 94% 4.1 mph E6.6 kmh E 10.3 mph16.6 kmh 29.93 in1013.5 mb 0.01 in0.3 mm 0.00 in/hr0.0 mm/hr 0.02 in0.5 mm
02:15 AM 65.2°F18.4°C 63.4°F17.4°C 94% 2.3 mph SE3.7 kmh SE 10.3 mph16.6 kmh 29.93 in1013.5 mb 0.01 in0.3 mm 0.00 in/hr0.0 mm/hr 0.02 in0.5 mm
02:10 AM 65.2°F18.4°C 63.4°F17.4°C 94% 4.8 mph E7.7 kmh E 7.4 mph11.9 kmh 29.93 in1013.5 mb 0.01 in0.3 mm 0.00 in/hr0.0 mm/hr 0.02 in0.5 mm
02:05 AM 65.2°F18.4°C 63.4°F17.4°C 94% 3.5 mph E5.6 kmh E 9.2 mph14.8 kmh 29.94 in1013.9 mb 0.01 in0.3 mm 0.00 in/hr0.0 mm/hr 0.02 in0.5 mm
02:00 AM 65.2°F18.4°C 63.4°F17.4°C 94% 4.8 mph ENE7.7 kmh ENE 9.2 mph14.8 kmh 29.94 in1013.9 mb 0.01 in0.3 mm 0.00 in/hr0.0 mm/hr 0.02 in0.5 mm
01:55 AM 65.2°F18.4°C 63.4°F17.4°C 94% 4.8 mph NE7.7 kmh NE 10.1 mph16.3 kmh 29.94 in1013.9 mb 0.01 in0.3 mm 0.00 in/hr0.0 mm/hr 0.02 in0.5 mm
01:50 AM 65.3°F18.5°C 63.5°F17.5°C 94% 5.4 mph NE8.7 kmh NE 10.1 mph16.3 kmh 29.94 in1013.9 mb 0.01 in0.3 mm 0.00 in/hr0.0 mm/hr 0.02 in0.5 mm
01:45 AM 65.3°F18.5°C 63.5°F17.5°C 94% 4.1 mph E6.6 kmh E 9.8 mph15.8 kmh 29.94 in1013.9 mb 0.01 in0.3 mm 0.12 in/hr3.0 mm/hr 0.02 in0.5 mm
01:40 AM 65.3°F18.5°C 63.5°F17.5°C 94% 4.9 mph E7.9 kmh E 9.8 mph15.8 kmh 29.94 in1013.9 mb 0.00 in0.0 mm 0.00 in/hr0.0 mm/hr 0.00 in0.0 mm
01:35 AM 65.3°F18.5°C 63.5°F17.5°C 94% 6.7 mph N10.8 kmh N 8.9 mph14.3 kmh 29.94 in1013.9 mb 0.00 in0.0 mm 0.00 in/hr0.0 mm/hr 0.00 in0.0 mm
01:30 AM 65.3°F18.5°C 63.5°F17.5°C 94% 8.0 mph E12.9 kmh E 8.9 mph14.3 kmh 29.95 in1014.2 mb 0.00 in0.0 mm 0.00 in/hr0.0 mm/hr 0.00 in0.0 mm
01:25 AM 65.3°F18.5°C 63.5°F17.5°C 94% 5.2 mph E8.4 kmh E 9.4 mph15.1 kmh 29.95 in1014.2 mb 0.00 in0.0 mm 0.00 in/hr0.0 mm/hr 0.00 in0.0 mm
01:20 AM 65.3°F18.5°C 63.5°F17.5°C 94% 7.3 mph ENE11.7 kmh ENE 9.4 mph15.1 kmh 29.94 in1013.9 mb 0.00 in0.0 mm 0.00 in/hr0.0 mm/hr 0.00 in0.0 mm
01:15 AM 65.3°F18.5°C 63.5°F17.5°C 94% 4.4 mph E7.1 kmh E 7.4 mph11.9 kmh 29.95 in1014.2 mb 0.00 in0.0 mm 0.00 in/hr0.0 mm/hr 0.00 in0.0 mm
01:10 AM 65.3°F18.5°C 63.5°F17.5°C 94% 5.3 mph E8.5 kmh E 9.2 mph14.8 kmh 29.95 in1014.2 mb 0.00 in0.0 mm 0.00 in/hr0.0 mm/hr 0.00 in0.0 mm
01:05 AM 65.3°F18.5°C 63.5°F17.5°C 94% 4.2 mph E6.8 kmh E 9.6 mph15.4 kmh 29.95 in1014.2 mb 0.00 in0.0 mm 0.00 in/hr0.0 mm/hr 0.00 in0.0 mm
01:00 AM 65.3°F18.5°C 63.5°F17.5°C 94% 5.5 mph E8.9 kmh E 9.6 mph15.4 kmh 29.95 in1014.2 mb 0.00 in0.0 mm 0.00 in/hr0.0 mm/hr 0.00 in0.0 mm
12:55 AM 65.3°F18.5°C 63.5°F17.5°C 94% 5.1 mph ENE8.2 kmh ENE 6.9 mph11.1 kmh 29.95 in1014.2 mb 0.00 in0.0 mm 0.00 in/hr0.0 mm/hr 0.00 in0.0 mm
12:50 AM 65.3°F18.5°C 63.5°F17.5°C 94% 5.3 mph E8.5 kmh E 8.3 mph13.4 kmh 29.96 in1014.6 mb 0.00 in0.0 mm 0.00 in/hr0.0 mm/hr 0.00 in0.0 mm
12:45 AM 65.3°F18.5°C 63.5°F17.5°C 94% 5.8 mph E9.3 kmh E 9.4 mph15.1 kmh 29.96 in1014.6 mb 0.00 in0.0 mm 0.00 in/hr0.0 mm/hr 0.00 in0.0 mm
12:40 AM 65.3°F18.5°C 63.5°F17.5°C 94% 3.8 mph E6.1 kmh E 9.4 mph15.1 kmh 29.96 in1014.6 mb 0.00 in0.0 mm 0.00 in/hr0.0 mm/hr 0.00 in0.0 mm
12:35 AM 65.3°F18.5°C 63.5°F17.5°C 94% 4.1 mph E6.6 kmh E 11.0 mph17.7 kmh 29.95 in1014.2 mb 0.00 in0.0 mm 0.00 in/hr0.0 mm/hr 0.00 in0.0 mm
12:30 AM 65.5°F18.6°C 63.7°F17.6°C 94% 6.2 mph ENE10.0 kmh ENE 11.0 mph17.7 kmh 29.95 in1014.2 mb 0.00 in0.0 mm 0.00 in/hr0.0 mm/hr 0.00 in0.0 mm
12:24 AM 65.3°F18.5°C 63.5°F17.5°C 94% 5.0 mph ENE8.0 kmh ENE 9.8 mph15.8 kmh 29.95 in1014.2 mb 0.00 in0.0 mm 0.00 in/hr0.0 mm/hr 0.00 in0.0 mm
12:19 AM 65.5°F18.6°C 63.7°F17.6°C 94% 5.5 mph NE8.9 kmh NE 9.4 mph15.1 kmh 29.96 in1014.6 mb 0.00 in0.0 mm 0.00 in/hr0.0 mm/hr 0.00 in0.0 mm
12:14 AM 65.5°F18.6°C 63.7°F17.6°C 94% 6.5 mph ENE10.5 kmh ENE 9.4 mph15.1 kmh 29.96 in1014.6 mb 0.00 in0.0 mm 0.00 in/hr0.0 mm/hr 0.00 in0.0 mm
12:09 AM 65.5°F18.6°C 63.7°F17.6°C 94% 3.6 mph E5.8 kmh E 9.8 mph15.8 kmh 29.95 in1014.2 mb 0.00 in0.0 mm 0.00 in/hr0.0 mm/hr 0.00 in0.0 mm
12:04 AM 65.5°F18.6°C 63.7°F17.6°C 94% 5.5 mph ESE8.9 kmh ESE 9.8 mph15.8 kmh 29.95 in1014.2 mb 0.00 in0.0 mm 0.00 in/hr0.0 mm/hr 0.00 in0.0 mm